• Join FlightAware (Why Join?)
  • Login
  • US Flag 
04:17AM EDT


 

Airport Tracker/Info


-or-


 

Live Flight TrackerFlight Track Log ✈ SWA2860 ✈ 18-Aug-2013 ✈ KDEN - KTPA

Flight Track Log - Related Links

Times and Time Zones

All times are in EDT time to prevent confusion due to time zone crossing. See the SWA2860 flight status page for this flight to view local times or setup timezone preferences in your user account.

Time Position Orientation Groundspeed Altitude Reporting Facility
EDT Latitude Longitude Course Direction KTS MPH feet Rate Location/Type
01:41PM 39.8667 -104.5500 108° East 219 252 7,200  Level Denver TRACON
01:42PM 39.8403 -104.4842 118° Southeast 254 292 8,500 1,500 Climbing Denver Center
01:43PM 39.8061 -104.3831 114° Southeast 301 346 10,100 1,800 Climbing Denver Center
01:44PM 39.7628 -104.2589 114° Southeast 352 405 12,300 1,920 Climbing Denver Center
01:45PM 39.7308 -104.1667 114° Southeast 363 418 14,100 2,460 Climbing Denver Center
01:46PM 39.5850 -103.7900 108° East  Level FlightAware Approximate
01:46PM 39.6728 -104.0036 115° Southeast 379 436 17,500  Level Denver Center
01:47PM 39.6239 -103.8744 116° Southeast 402 463 19,500 1,980 Climbing Denver Center
01:48PM 39.5758 -103.7381 115° Southeast 410 472 21,700 2,160 Climbing Denver Center
01:49PM 39.5406 -103.5956 108° East 417 480 24,000 1,980 Climbing Denver Center
01:50PM 39.5003 -103.4475 109° East 432 497 25,800 1,560 Climbing Denver Center
01:51PM 39.4606 -103.2967 109° East 441 507 27,300 1,980 Climbing Denver Center
01:52PM 39.4111 -103.1097 109° East 457 526 30,000 1,980 Climbing Denver Center
01:53PM 39.3794 -102.9889 109° East 448 516 31,400 1,440 Climbing Denver Center
01:54PM 39.3297 -102.8075 109° East 447 514 33,000 1,260 Climbing Denver Center
01:55PM 39.2825 -102.6375 110° East 456 525 34,100 900 Climbing Denver Center
01:56PM 39.2422 -102.4853 109° East 465 535 34,900 1,020 Climbing Denver Center
01:57PM 39.1925 -102.3050 110° East 476 548 36,300 960 Climbing Denver Center
01:58PM 39.1183 -102.1744 126° Southeast 473 544 37,000 300 Climbing Denver Center
01:59PM 39.0333 -102.0544 132° Southeast 475 547 37,000  Level Denver Center
02:00PM 38.9358 -101.9108 131° Southeast 476 548 37,000  Level Denver Center
02:01PM 38.8511 -101.7922 133° Southeast 472 543 37,000  Level Denver Center
02:02PM 38.7533 -101.6539 132° Southeast 469 540 37,000  Level Denver Center
02:03PM 38.6694 -101.5358 132° Southeast 469 540 37,000  Level Denver Center
02:04PM 38.5711 -101.3975 132° Southeast 470 541 37,000  Level Denver Center
02:05PM 38.4861 -101.2789 132° Southeast 471 542 37,000  Level Denver Center
02:06PM 38.3861 -101.1411 133° Southeast 473 544 37,000  Level Denver Center
02:07PM 38.3147 -101.0403 132° Southeast 473 544 37,000  Level Kansas City Center
02:09PM 38.1306 -100.7864 133° Southeast 470 541 37,000  Level Kansas City Center
02:10PM 38.0458 -100.6689 132° Southeast 468 539 37,000  Level Kansas City Center
02:11PM 37.9603 -100.5522 133° Southeast 468 539 37,000  Level Kansas City Center
02:12PM 37.8597 -100.4169 133° Southeast 468 539 37,000  Level Kansas City Center
02:13PM 37.7739 -100.3000 133° Southeast 469 540 37,000  Level Kansas City Center
02:14PM 37.6736 -100.1658 133° Southeast 468 539 37,000  Level Kansas City Center
02:15PM 37.5878 -100.0494 133° Southeast 471 542 37,000  Level Kansas City Center
02:17PM 37.4878 -99.9147 133° Southeast 470 541 37,000  Level Kansas City Center
02:18PM 37.4017 -99.8017 134° Southeast 468 539 37,000  Level Kansas City Center
02:19PM 37.3031 -99.6681 133° Southeast 467 537 37,000  Level Kansas City Center
02:20PM 37.2161 -99.5558 134° Southeast 468 539 37,000  Level Kansas City Center
02:21PM 37.1228 -99.4339 134° Southeast 465 535 37,000  Level Kansas City Center
02:22PM 37.0336 -99.3169 134° Southeast 463 533 37,000  Level Kansas City Center
02:23PM 36.9456 -99.2014 134° Southeast 459 528 37,000  Level Kansas City Center
02:24PM 36.8561 -99.0850 134° Southeast 461 531 37,000  Level Kansas City Center
02:25PM 36.7664 -98.9675 134° Southeast 463 533 37,000  Level Kansas City Center
02:26PM 36.6761 -98.8508 134° Southeast 464 534 37,000  Level Kansas City Center
02:27PM 36.5861 -98.7350 134° Southeast 463 533 37,000  Level Kansas City Center
02:28PM 36.4789 -98.5983 134° Southeast 458 527 37,000  Level Kansas City Center
02:29PM 36.3889 -98.4819 134° Southeast 459 528 37,000  Level Kansas City Center
02:30PM 36.2989 -98.3656 134° Southeast 463 533 37,000  Level Kansas City Center
02:31PM 36.2436 -98.2975 135° Southeast 463 533 37,000  Level Kansas City Center
02:32PM 36.1522 -98.1831 135° Southeast 464 534 37,000  Level Kansas City Center
02:33PM 36.0625 -98.0669 134° Southeast 464 534 37,000  Level Kansas City Center
02:34PM 35.9606 -97.9400 135° Southeast 461 531 37,000  Level Kansas City Center
02:35PM 35.8717 -97.8275 134° Southeast 459 528 37,000  Level Kansas City Center
02:36PM 35.7825 -97.7156 134° Southeast 458 527 37,000  Level Kansas City Center
02:37PM 35.6922 -97.6047 135° Southeast 458 527 37,000  Level Kansas City Center
02:38PM 35.6028 -97.4928 134° Southeast 457 526 37,000  Level Kansas City Center
02:39PM 35.5125 -97.3797 134° Southeast 459 528 37,000  Level Kansas City Center
02:40PM 35.4167 -97.2581 134° Southeast 463 533 37,000  Level Fort Worth Center
02:41PM 35.3164 -97.1414 136° Southeast 469 540 37,000  Level Fort Worth Center
02:42PM 35.2242 -97.0322 136° Southeast 469 540 37,000  Level Fort Worth Center
02:43PM 35.1342 -96.9211 135° Southeast 469 540 37,000  Level Fort Worth Center
02:44PM 35.0419 -96.8100 135° Southeast 469 540 37,000  Level Fort Worth Center
02:45PM 34.9494 -96.6992 136° Southeast 463 533 37,000  Level Fort Worth Center
02:46PM 34.8569 -96.5886 136° Southeast 463 533 37,000  Level Fort Worth Center
02:47PM 34.7644 -96.4783 136° Southeast 463 533 37,000  Level Fort Worth Center
02:48PM 34.6739 -96.3681 135° Southeast 458 527 37,000  Level Fort Worth Center
02:49PM 34.5811 -96.2608 136° Southeast 458 527 37,000  Level Fort Worth Center
02:50PM 34.4883 -96.1514 136° Southeast 458 527 37,000  Level Fort Worth Center
02:51PM 34.3994 -96.0419 135° Southeast 458 527 37,000  Level Fort Worth Center
02:52PM 34.3067 -95.9353 136° Southeast 458 527 37,000  Level Fort Worth Center
02:53PM 34.2156 -95.8286 136° Southeast 458 527 37,000  Level Fort Worth Center
02:54PM 34.1222 -95.7225 137° Southeast 458 527 37,000  Level Fort Worth Center
02:55PM 34.0394 -95.6114 132° Southeast 458 527 37,000  Level Fort Worth Center
02:56PM 33.9356 -95.4933 137° Southeast 458 527 37,000  Level Fort Worth Center
02:57PM 33.8419 -95.3878 137° Southeast 458 527 37,000  Level Fort Worth Center
02:58PM 33.7483 -95.2800 136° Southeast 463 533 37,000  Level Fort Worth Center
02:59PM 33.6567 -95.1725 136° Southeast 458 527 37,000  Level Fort Worth Center
03:00PM 33.5650 -95.0653 136° Southeast 458 527 37,000  Level Fort Worth Center
03:01PM 33.4689 -94.9558 136° Southeast 460 529 37,000 540 Level Fort Worth Center
03:02PM 33.3750 -94.8464 136° Southeast 460 529 38,100 960 Climbing Fort Worth Center
03:03PM 33.2831 -94.7397 136° Southeast 460 529 39,000 420 Climbing Fort Worth Center
03:04PM 33.1867 -94.6333 137° Southeast 460 529 39,000  Level Fort Worth Center
03:05PM 33.0925 -94.5272 137° Southeast 460 529 39,000  Level Fort Worth Center
03:06PM 32.9983 -94.4214 137° Southeast 460 529 39,000  Level Fort Worth Center
03:07PM 32.9039 -94.3131 136° Southeast 460 529 39,000  Level Fort Worth Center
03:08PM 32.8136 -94.2100 136° Southeast 460 529 39,000  Level Fort Worth Center
03:09PM 32.7189 -94.1047 137° Southeast 460 529 39,000  Level Fort Worth Center
03:10PM 32.6286 -94.0019 136° Southeast 460 529 39,000  Level Fort Worth Center
03:11PM 32.5400 -93.8994 136° Southeast 455 524 39,000  Level Fort Worth Center
03:13PM 32.3433 -93.6825 137° Southeast 450 518 39,000  Level Houston Center
03:14PM 32.2453 -93.5739 137° Southeast 456 525 39,000  Level Houston Center
03:15PM 32.1539 -93.4722 137° Southeast 453 521 39,000  Level Houston Center
03:16PM 32.0428 -93.3497 137° Southeast 455 524 39,000  Level Houston Center
03:17PM 31.9500 -93.2486 137° Southeast 456 525 39,000  Level Houston Center
03:18PM 31.8558 -93.1467 137° Southeast 459 528 39,000  Level Houston Center
03:19PM 31.7653 -93.0503 138° Southeast 459 528 39,000  Level Houston Center
03:20PM 31.6717 -92.9500 138° Southeast 457 526 39,000  Level Houston Center
03:21PM 31.5914 -92.8339 129° Southeast 468 539 39,000  Level Houston Center
03:22PM 31.5039 -92.6925 126° Southeast 453 521 39,000  Level Houston Center
03:23PM 31.4297 -92.5731 126° Southeast 452 520 39,000  Level Houston Center
03:24PM 31.3531 -92.4528 127° Southeast 456 525 39,000  Level Houston Center
03:25PM 31.2778 -92.3322 126° Southeast 459 528 39,000  Level Houston Center
03:27PM 31.2042 -92.2164 127° Southeast 449 517 39,000  Level Houston Center
03:28PM 31.1306 -92.1008 127° Southeast 444 511 39,000  Level Houston Center
03:29PM 31.0508 -91.9728 126° Southeast 441 507 39,000  Level Houston Center
03:30PM 30.9772 -91.8569 127° Southeast 444 511 39,000  Level Houston Center
03:31PM 30.9025 -91.7417 127° Southeast 445 512 39,000  Level Houston Center
03:32PM 30.8289 -91.6261 127° Southeast 446 513 39,000  Level Houston Center
03:33PM 30.7553 -91.5114 127° Southeast 444 511 39,000  Level Houston Center
03:34PM 30.6706 -91.3794 127° Southeast 440 506 39,000  Level Houston Center
03:35PM 30.5981 -91.2661 127° Southeast 438 504 39,000  Level Houston Center
03:36PM 30.5256 -91.1547 127° Southeast 435 501 39,000  Level Houston Center
03:37PM 30.4511 -91.0436 128° Southeast 436 502 39,000  Level Houston Center
03:38PM 30.3794 -90.9328 127° Southeast 433 498 39,000  Level Houston Center
03:39PM 30.2928 -90.8000 127° Southeast 431 496 39,000  Level Houston Center
03:40PM 30.2197 -90.6900 128° Southeast 432 497 39,000  Level Houston Center
03:41PM 30.1472 -90.5789 127° Southeast 434 499 39,000  Level Houston Center
03:42PM 30.0756 -90.4694 127° Southeast 431 496 39,000  Level Houston Center
03:43PM 30.0025 -90.3600 128° Southeast 432 497 39,000  Level Houston Center
03:44PM 29.9294 -90.2494 127° Southeast 436 502 39,000  Level Houston Center
03:45PM 29.8414 -90.1192 128° Southeast 434 499 39,000  Level Houston Center
03:46PM 29.7689 -90.0094 127° Southeast 434 499 39,000  Level Houston Center
03:47PM 29.6992 -89.8961 125° Southeast 439 505 39,000  Level Houston Center
03:48PM 29.6558 -89.7622 110° East 448 516 39,000  Level Houston Center
03:49PM 29.6144 -89.6292 110° East 446 513 39,000  Level Houston Center
03:50PM 29.5653 -89.4672 109° East 450 518 39,000  Level Houston Center
03:51PM 29.5239 -89.3347 110° East 445 512 39,000  Level Houston Center
03:52PM 29.4814 -89.2011 110° East 447 514 39,000  Level Houston Center
03:53PM 29.4406 -89.0686 109° East 443 510 39,000  Level Houston Center
03:54PM 29.3983 -88.9378 110° East 440 506 39,000  Level Houston Center
03:55PM 29.3553 -88.8039 110° East 448 516 39,000  Level Houston Center
03:56PM 29.3047 -88.6433 110° East 448 516 39,000  Level Houston Center
03:57PM 29.2611 -88.5069 110° East 454 522 39,000  Level Houston Center
03:58PM 29.2169 -88.3736 111° Southeast 451 519 39,000  Level Houston Center
04:00PM 29.1744 -88.2389 110° East 452 520 39,000  Level Houston Center
04:01PM 29.1308 -88.1058 111° Southeast 448 516 39,000  Level Houston Center
04:02PM 29.0842 -87.9603 110° East 444 511 39,000  Level Houston Center
04:03PM 29.0456 -87.8250 108° East 447 514 39,000  Level Houston Center
04:04PM 29.0158 -87.6875 104° East 448 516 39,000  Level Houston Center
04:05PM 28.9789 -87.5211 104° East 451 519 39,000  Level Houston Center
04:06PM 28.9483 -87.3839 104° East 448 516 39,000  Level Houston Center
04:07PM 28.9169 -87.2467 105° East 449 517 39,000  Level Houston Center
04:08PM 28.8847 -87.1086 105° East 450 518 39,000  Level Houston Center
04:09PM 28.8564 -86.9958 106° East 438 504 39,000  Level Jacksonville Center
04:10PM 28.8272 -86.8594 104° East 443 510 39,000  Level Jacksonville Center
04:11PM 28.7961 -86.7208 104° East 443 510 39,000  Level Jacksonville Center
04:12PM 28.7625 -86.5822 105° East 448 516 39,000  Level Jacksonville Center
04:13PM 28.7311 -86.4439 104° East 448 516 39,000  Level Jacksonville Center
04:14PM 28.6972 -86.3100 106° East 440 506 39,000  Level Jacksonville Center
04:15PM 28.6672 -86.1742 104° East 445 512 39,000  Level Jacksonville Center
04:16PM 28.6331 -86.0358 106° East 445 512 39,000  Level Jacksonville Center
04:17PM 28.6008 -85.9050 106° East 440 506 39,000  Level Jacksonville Center
04:18PM 28.5686 -85.7667 105° East 440 506 39,000  Level Jacksonville Center
04:19PM 28.5358 -85.6336 106° East 440 506 39,000  Level Jacksonville Center
04:20PM 28.5033 -85.5028 106° East 440 506 39,000  Level Jacksonville Center
04:21PM 28.4725 -85.3697 105° East 440 506 39,000  Level Jacksonville Center
04:22PM 28.4417 -85.2367 105° East 433 498 39,000  Level Jacksonville Center
04:23PM 28.4064 -85.1014 106° East 438 504 39,000 -540 Level Jacksonville Center
04:25PM 28.3350 -84.8019 105° East 437 503 37,400 -840 Descending Miami Center
04:26PM 28.3006 -84.6700 106° East 431 496 36,400 -1,140 Descending Miami Center
04:27PM 28.2658 -84.5406 107° East 424 488 35,200 -2,100 Descending Miami Center
04:28PM 28.2372 -84.4139 104° East 411 473 32,300 -2,700 Descending Miami Center
04:29PM 28.2086 -84.2825 104° East 411 473 29,800 -2,280 Descending Miami Center
04:30PM 28.1733 -84.1581 108° East 421 484 27,800 -2,100 Descending Miami Center
04:31PM 28.1419 -84.0383 107° East 414 476 25,700 -2,100 Descending Miami Center
04:32PM 28.1083 -83.9186 108° East 403 464 23,600 -2,100 Descending Miami Center
04:33PM 28.0828 -83.8019 104° East 392 451 21,500 -2,100 Descending Miami Center
04:34PM 28.0547 -83.6897 106° East 381 438 19,500 -1,920 Descending Miami Center
04:35PM 28.0244 -83.5797 107° East 369 425 17,700 -1,980 Descending Miami Center
04:36PM 27.9961 -83.4722 107° East 358 412 15,600 -2,040 Descending Miami Center
04:37PM 27.9694 -83.3675 106° East 347 399 13,700 -1,860 Descending Miami Center
04:38PM 27.9408 -83.2672 108° East 347 399 11,900 -1,320 Descending Miami Center
04:39PM 27.9303 -83.1703 97° East 329 379 11,100 -1,080 Descending Miami Center
04:40PM 27.9342 -83.0836 87° East 299 344 9,800 -1,140 Descending Miami Center
04:41PM 27.9358 -82.9969 89° East 288 331 8,900 -1,200 Descending Miami Center
04:42PM 27.9497 -82.9156 79° East 271 312 7,500 -1,320 Descending Miami Center
04:43PM 27.9667 -82.8667 69° East 257 296 6,800 -1,140 Descending Tampa TRACON
04:44PM 27.9833 -82.7833 77° East 250 288 5,700 -960 Descending Tampa TRACON
04:44PM 27.9833 -82.7167 90° East 245 282 5,000 -420 Descending Tampa TRACON
04:45PM 27.9833 -82.6500 90° East 226 260 5,000 -420 Level Tampa TRACON
04:47PM 27.9333 -82.6167 150° Southeast 215 247 4,200 -720 Descending Tampa TRACON
04:48PM 27.8667 -82.6167 180° South 218 251 3,500 -780 Descending Tampa TRACON
04:48PM 27.8333 -82.6000 156° South 204 235 2,800 -480 Descending Tampa TRACON
04:49PM 27.8500 -82.5500 69° East 207 238 2,700 -660 Descending Tampa TRACON
04:51PM 27.9167 -82.5333 12° North 170 196 1,500 -1,080 Descending Tampa TRACON
04:52PM 27.9500 -82.5333 360° North 142 163 500 -1,020 Descending Tampa TRACON
04:54PM 27.9667 -82.5167 19° North  Level FlightAware Approximate
05:01PM 27.9755 -82.5332 19° North  Level Estimated